Hauptseite
METAR-TAF:

METAR-TAF

Flughäfen :

Francistown, Botsuana

Breite: 21-13S, Länge: 027-30E, Höhe: 1001 m

Beobachtung

Neuester Wetterbericht von vor 26 Minuten, um 14:50 UTC
Wind 9 kt aus Ost/Südost, variierte zwischen Ost und Südost
Temperatur 20°C
Luftfeuchtigkeit 40%
Luftdruck 1025 hPa
Sichtweite 10 km oder mehr
Leicht bewölkt in der Höhe von 2500 ft

METAR: FBFT 061450Z 11009KT 080V140 9999 FEW025 20/06 Q1025

Zeit: 17:16 (15:16 UTC)

Prognose

Neuester Wetterbericht von vor 6 Stunden und 16 Minuten, um 09:00 UTC
Gültige Prognose vom 06 um 12 UTC bis 06 um 21 UTC
Wind 10 kt aus Ost/Südost
Sichtweite 10 km oder mehr
Aufgelockert bewölkt in der Höhe von 3000 ft

TAF: FBFT 060900Z 0612/0621 11010KT 9999 SCT030

Wetterbeobachtungen und Prognosen von mehr als 4000 Flughäfen (METAR und TAF Bericht).

Die verfügbaren Stationen werden durch gelbe und rote Markierungen auf der Karte dargestellt.

Führen Sie die Maus auf sie, um den Namen der Station zu sehen.

Darauf klicken, um die Beobachtung von Wetterbeobachtungen und Prognosen zu sehen.

Um die Karte zu ändern : klicken Sie auf den grünen Tasten mit einem schwarzen Kreuz Zum Vergrößern, auf den grünen Button mit einem Gedankenstrich zu verkleinern, oder auf die grünen Pfeile für benachbarte Karten.


METAR-TAF: